createdAt,value
2019-03-03T00:00:52.076Z,68.66
2019-03-03T00:03:21.258Z,68.60
2019-03-03T00:05:50.426Z,68.68
2019-03-03T00:08:19.875Z,68.83
2019-03-03T00:10:49.053Z,68.80
2019-03-03T00:13:18.229Z,68.95
2019-03-03T00:15:47.686Z,68.87
2019-03-03T00:18:17.145Z,68.87
2019-03-03T00:20:46.324Z,68.88
2019-03-03T00:23:15.777Z,68.92
2019-03-03T00:25:44.971Z,68.97
2019-03-03T00:28:14.157Z,68.94
2019-03-03T00:30:43.939Z,69.00
2019-03-03T00:33:13.116Z,69.03
2019-03-03T00:35:42.339Z,69.03
2019-03-03T00:38:36.572Z,69.18
2019-03-03T00:41:23.283Z,69.16
2019-03-03T00:44:09.874Z,69.28
2019-03-03T00:46:58.111Z,69.28
2019-03-03T00:49:55.478Z,69.32
2019-03-03T00:52:59.056Z,69.41
2019-03-03T00:55:35.528Z,69.34
2019-03-03T00:58:13.588Z,69.23
2019-03-03T01:00:53.443Z,69.25
2019-03-03T01:03:41.657Z,69.40
2019-03-03T01:06:17.486Z,69.47
2019-03-03T01:09:10.245Z,69.66
2019-03-03T01:12:04.398Z,69.70
2019-03-03T01:14:46.397Z,69.56
2019-03-03T01:17:44.373Z,69.72
2019-03-03T01:20:35.818Z,69.61
2019-03-03T01:23:36.049Z,69.49
2019-03-03T01:26:05.441Z,69.74
2019-03-03T01:28:34.618Z,69.58
2019-03-03T01:31:03.871Z,69.63
2019-03-03T01:33:33.241Z,69.75
2019-03-03T01:36:02.414Z,69.62
2019-03-03T01:38:32.763Z,69.72
2019-03-03T01:41:02.041Z,69.93
2019-03-03T01:43:31.257Z,69.87
2019-03-03T01:46:00.457Z,69.88
2019-03-03T01:48:31.599Z,69.87
2019-03-03T01:51:00.780Z,69.98
2019-03-03T01:53:30.032Z,70.07
2019-03-03T01:55:59.704Z,70.14
2019-03-03T01:58:28.921Z,70.22
2019-03-03T02:00:58.230Z,70.31
2019-03-03T02:03:28.778Z,70.40
2019-03-03T02:05:57.910Z,70.55
2019-03-03T02:08:27.130Z,70.77
2019-03-03T02:10:56.532Z,70.87
2019-03-03T02:13:25.809Z,71.02
2019-03-03T02:15:55.162Z,71.09
2019-03-03T02:18:24.538Z,71.15
2019-03-03T02:20:53.817Z,71.21
2019-03-03T02:23:23.159Z,71.30
2019-03-03T02:25:52.462Z,71.30
2019-03-03T02:28:21.750Z,71.41
2019-03-03T02:30:51.391Z,71.42
2019-03-03T02:33:20.756Z,71.75
2019-03-03T02:35:49.940Z,71.83
2019-03-03T02:38:19.242Z,71.90
2019-03-03T02:40:48.510Z,71.95
2019-03-03T02:43:17.683Z,71.92
2019-03-03T02:45:46.878Z,72.00
2019-03-03T02:48:16.441Z,72.04
2019-03-03T02:50:45.796Z,72.15
2019-03-03T02:53:15.048Z,72.28
2019-03-03T02:55:44.548Z,72.33
2019-03-03T02:58:13.828Z,72.49
2019-03-03T03:00:52.460Z,72.58
2019-03-03T03:03:22.281Z,72.66
2019-03-03T03:06:00.578Z,72.58
2019-03-03T03:08:37.308Z,72.63
2019-03-03T03:11:20.897Z,72.67
2019-03-03T03:14:07.468Z,72.57
2019-03-03T03:16:48.959Z,72.76
2019-03-03T03:19:40.260Z,72.76
2019-03-03T03:22:19.950Z,72.78
2019-03-03T03:25:11.181Z,72.91
2019-03-03T03:28:02.523Z,73.11
2019-03-03T03:30:38.449Z,73.24
2019-03-03T03:33:29.862Z,73.41
2019-03-03T03:36:17.070Z,73.38
2019-03-03T03:39:11.194Z,73.43
2019-03-03T03:41:58.066Z,73.55
2019-03-03T03:44:45.169Z,73.56
2019-03-03T03:47:36.487Z,73.54
2019-03-03T03:50:23.996Z,73.46
2019-03-03T03:53:08.376Z,73.63
2019-03-03T03:55:56.162Z,73.63
2019-03-03T03:58:39.742Z,73.67
2019-03-03T04:01:26.789Z,73.68
2019-03-03T04:04:12.137Z,73.72
2019-03-03T04:06:47.580Z,73.75
2019-03-03T04:09:25.379Z,73.91
2019-03-03T04:12:19.903Z,74.07
2019-03-03T04:15:03.814Z,74.18
2019-03-03T04:17:55.066Z,74.11
2019-03-03T04:20:49.109Z,74.12
2019-03-03T04:23:40.488Z,74.15
2019-03-03T04:26:28.977Z,74.12
2019-03-03T04:29:20.253Z,74.00
2019-03-03T04:31:59.309Z,74.07
2019-03-03T04:34:47.495Z,74.10
2019-03-03T04:37:41.940Z,74.14
2019-03-03T04:40:36.345Z,74.17
2019-03-03T04:43:39.834Z,74.09
2019-03-03T04:46:30.061Z,74.15
2019-03-03T04:49:17.237Z,74.12
2019-03-03T04:52:08.392Z,74.20
2019-03-03T04:54:56.089Z,74.24
2019-03-03T04:57:55.030Z,74.33
2019-03-03T05:00:41.996Z,74.50
2019-03-03T05:03:42.277Z,74.59
2019-03-03T05:06:30.576Z,74.75
2019-03-03T05:09:21.619Z,74.90
2019-03-03T05:12:23.539Z,75.06
2019-03-03T05:14:54.570Z,75.16
2019-03-03T05:17:43.340Z,75.30
2019-03-03T05:20:13.074Z,75.42
2019-03-03T05:22:42.257Z,75.50
2019-03-03T05:25:11.958Z,75.63
2019-03-03T05:27:41.278Z,75.78
2019-03-03T05:30:10.660Z,75.86
2019-03-03T05:32:40.081Z,76.00
2019-03-03T05:35:09.409Z,76.22
2019-03-03T05:37:40.670Z,76.28
2019-03-03T05:40:10.208Z,76.40
2019-03-03T05:42:39.724Z,76.38
2019-03-03T05:45:08.996Z,76.41
2019-03-03T05:47:38.175Z,76.51
2019-03-03T05:50:07.747Z,76.61
2019-03-03T05:52:36.924Z,76.66
2019-03-03T05:55:06.130Z,76.82
2019-03-03T05:57:35.441Z,76.94
2019-03-03T06:00:05.150Z,77.03
2019-03-03T06:02:34.330Z,77.11
2019-03-03T06:05:03.820Z,77.20
2019-03-03T06:07:33.007Z,77.23
2019-03-03T06:10:02.179Z,77.21
2019-03-03T06:12:31.485Z,77.26
2019-03-03T06:15:00.656Z,77.32
2019-03-03T06:17:29.843Z,77.47
2019-03-03T06:19:59.140Z,77.53
2019-03-03T06:22:28.437Z,77.54
2019-03-03T06:24:57.611Z,77.76
2019-03-03T06:27:27.108Z,77.89
2019-03-03T06:29:56.296Z,77.88
2019-03-03T06:32:25.477Z,77.96
2019-03-03T06:34:55.319Z,78.09
2019-03-03T06:37:24.485Z,78.11
2019-03-03T06:39:53.698Z,78.18
2019-03-03T06:42:23.113Z,78.23
2019-03-03T06:44:52.300Z,78.31
2019-03-03T06:47:21.484Z,78.40
2019-03-03T06:49:50.812Z,78.45
2019-03-03T06:52:20.090Z,78.43
2019-03-03T06:54:49.264Z,78.35
2019-03-03T06:57:18.586Z,78.45
2019-03-03T06:59:47.760Z,78.50
2019-03-03T07:02:17.033Z,78.54
2019-03-03T07:04:46.530Z,78.61
2019-03-03T07:07:15.708Z,78.58
2019-03-03T07:09:44.937Z,78.59
2019-03-03T07:12:14.238Z,78.66
2019-03-03T07:14:43.413Z,78.70
2019-03-03T07:17:12.586Z,78.78
2019-03-03T07:19:42.116Z,78.79
2019-03-03T07:22:11.320Z,78.77
2019-03-03T07:24:40.502Z,78.81
2019-03-03T07:27:10.012Z,78.84
2019-03-03T07:29:39.592Z,78.93
2019-03-03T07:32:08.773Z,78.85
2019-03-03T07:34:38.205Z,78.88
2019-03-03T07:37:07.425Z,78.95
2019-03-03T07:39:36.594Z,78.95
2019-03-03T07:42:06.046Z,78.99
2019-03-03T07:44:35.224Z,79.02
2019-03-03T07:47:04.726Z,78.95
2019-03-03T07:49:34.073Z,78.95
2019-03-03T07:52:03.267Z,78.97
2019-03-03T07:54:32.451Z,79.00
2019-03-03T07:57:01.909Z,78.97
2019-03-03T07:59:31.098Z,79.12
2019-03-03T08:02:00.270Z,79.10
2019-03-03T08:04:29.701Z,79.04
2019-03-03T08:06:58.909Z,79.01
2019-03-03T08:09:28.125Z,79.03
2019-03-03T08:11:57.606Z,79.04
2019-03-03T08:14:27.032Z,79.04
2019-03-03T08:16:56.261Z,79.07
2019-03-03T08:19:25.628Z,79.06
2019-03-03T08:21:54.802Z,79.09
2019-03-03T08:24:24.085Z,79.03
2019-03-03T08:26:53.466Z,79.03
2019-03-03T08:29:22.656Z,79.16
2019-03-03T08:31:51.984Z,79.17
2019-03-03T08:34:21.433Z,79.07
2019-03-03T08:36:50.605Z,79.06
2019-03-03T08:39:19.787Z,79.23
2019-03-03T08:41:53.199Z,79.19
2019-03-03T08:44:41.342Z,79.14
2019-03-03T08:47:29.784Z,79.16
2019-03-03T08:50:21.059Z,79.08
2019-03-03T08:53:05.478Z,79.03
2019-03-03T08:55:47.769Z,79.03
2019-03-03T08:58:25.255Z,78.99
2019-03-03T09:01:12.049Z,79.02
2019-03-03T09:03:52.730Z,79.07
2019-03-03T09:06:45.556Z,79.03
2019-03-03T09:09:33.928Z,78.99
2019-03-03T09:12:30.985Z,78.90
2019-03-03T09:15:28.819Z,78.96
2019-03-03T09:18:13.430Z,78.93
2019-03-03T09:20:59.090Z,78.90
2019-03-03T09:23:35.872Z,79.05
2019-03-03T09:26:24.156Z,79.12
2019-03-03T09:29:09.800Z,79.09
2019-03-03T09:32:13.428Z,79.19
2019-03-03T09:35:00.274Z,79.25
2019-03-03T09:37:38.309Z,79.18
2019-03-03T09:40:32.602Z,79.15
2019-03-03T09:43:13.674Z,79.27
2019-03-03T09:45:54.545Z,79.15
2019-03-03T09:48:49.157Z,79.26
2019-03-03T09:51:49.321Z,79.30
2019-03-03T09:54:26.795Z,79.24
2019-03-03T09:57:17.868Z,79.25
2019-03-03T10:00:05.289Z,79.27
2019-03-03T10:02:56.533Z,79.28
2019-03-03T10:05:53.879Z,79.30
2019-03-03T10:08:45.228Z,79.25
2019-03-03T10:11:24.016Z,79.30
2019-03-03T10:14:09.386Z,79.36
2019-03-03T10:17:10.422Z,79.38
2019-03-03T10:19:46.785Z,79.39
2019-03-03T10:22:33.436Z,79.33
2019-03-03T10:25:20.262Z,79.37
2019-03-03T10:28:14.383Z,79.45
2019-03-03T10:31:11.597Z,79.41
2019-03-03T10:33:58.375Z,79.51
2019-03-03T10:36:49.711Z,79.45
2019-03-03T10:39:36.892Z,79.43
2019-03-03T10:42:23.725Z,79.43
2019-03-03T10:45:15.263Z,79.43
2019-03-03T10:48:02.419Z,79.46
2019-03-03T10:50:54.792Z,79.44
2019-03-03T10:53:42.918Z,79.42
2019-03-03T10:56:34.342Z,79.40
2019-03-03T10:59:12.345Z,79.39
2019-03-03T11:01:49.928Z,79.52
2019-03-03T11:04:44.085Z,79.60
2019-03-03T11:07:31.332Z,79.57
2019-03-03T11:10:18.359Z,79.63
2019-03-03T11:13:00.819Z,79.59
2019-03-03T11:15:41.870Z,79.41
2019-03-03T11:18:29.077Z,79.45
2019-03-03T11:21:17.220Z,79.58
2019-03-03T11:24:05.853Z,79.61
2019-03-03T11:26:57.110Z,79.69
2019-03-03T11:29:32.633Z,79.69
2019-03-03T11:32:23.421Z,79.66
2019-03-03T11:35:14.620Z,79.60
2019-03-03T11:37:51.682Z,79.66
2019-03-03T11:40:55.622Z,79.62
2019-03-03T11:43:46.254Z,79.67
2019-03-03T11:46:37.360Z,79.56
2019-03-03T11:49:19.533Z,79.52
2019-03-03T11:52:08.389Z,79.62
2019-03-03T11:55:08.646Z,79.78
2019-03-03T11:57:46.133Z,79.74
2019-03-03T12:00:37.553Z,79.59
2019-03-03T12:03:16.383Z,79.67
2019-03-03T12:06:03.321Z,79.81
2019-03-03T12:08:51.744Z,79.82
2019-03-03T12:11:38.563Z,79.74
2019-03-03T12:14:17.336Z,79.81
2019-03-03T12:17:08.767Z,79.76
2019-03-03T12:19:57.128Z,79.87
2019-03-03T12:22:45.296Z,79.90
2019-03-03T12:25:23.557Z,79.97
2019-03-03T12:28:22.872Z,79.98
2019-03-03T12:31:00.369Z,80.13
2019-03-03T12:33:51.729Z,80.06
2019-03-03T12:36:38.745Z,80.15
2019-03-03T12:39:26.461Z,80.00
2019-03-03T12:42:17.952Z,80.03
2019-03-03T12:44:52.899Z,79.97
2019-03-03T12:47:28.917Z,79.99
2019-03-03T12:50:16.081Z,80.13
2019-03-03T12:52:57.191Z,80.15
2019-03-03T12:55:41.197Z,80.23
2019-03-03T12:58:47.794Z,80.26
2019-03-03T13:01:41.442Z,80.20
2019-03-03T13:04:33.098Z,80.29
2019-03-03T13:07:21.352Z,80.22
2019-03-03T13:10:28.062Z,80.32
2019-03-03T13:13:11.897Z,80.19
2019-03-03T13:16:00.152Z,80.31
2019-03-03T13:18:50.648Z,80.41
2019-03-03T13:21:51.261Z,80.39
2019-03-03T13:24:32.708Z,80.36
2019-03-03T13:27:16.363Z,80.37
2019-03-03T13:29:58.446Z,80.40
2019-03-03T13:32:38.729Z,80.43
2019-03-03T13:35:26.912Z,80.44
2019-03-03T13:38:18.109Z,80.41
2019-03-03T13:41:06.119Z,80.51
2019-03-03T13:43:35.589Z,80.56
2019-03-03T13:46:04.964Z,80.36
2019-03-03T13:48:34.172Z,80.42
2019-03-03T13:51:03.529Z,80.44
2019-03-03T13:53:32.735Z,80.13
2019-03-03T13:56:01.989Z,80.28
2019-03-03T13:58:31.429Z,80.31
2019-03-03T14:01:00.732Z,80.31
2019-03-03T14:03:29.935Z,80.23
2019-03-03T14:05:59.472Z,80.02
2019-03-03T14:08:28.668Z,80.17
2019-03-03T14:10:57.966Z,80.39
2019-03-03T14:13:27.490Z,80.67
2019-03-03T14:15:56.697Z,80.77
2019-03-03T14:18:25.922Z,80.81
2019-03-03T14:20:55.340Z,81.00
2019-03-03T14:23:24.610Z,81.05
2019-03-03T14:25:53.837Z,81.05
2019-03-03T14:28:23.183Z,81.03
2019-03-03T14:30:52.494Z,81.10
2019-03-03T14:33:21.794Z,81.14
2019-03-03T14:35:51.113Z,81.11
2019-03-03T14:38:20.441Z,81.21
2019-03-03T14:40:49.700Z,81.24
2019-03-03T14:43:19.351Z,81.28
2019-03-03T14:45:48.795Z,81.39
2019-03-03T14:48:18.096Z,81.41
2019-03-03T14:50:47.485Z,81.44
2019-03-03T14:53:16.686Z,81.42
2019-03-03T14:55:45.999Z,81.44
2019-03-03T14:58:15.517Z,81.50
2019-03-03T15:00:44.758Z,81.37
2019-03-03T15:03:14.015Z,81.50
2019-03-03T15:05:43.452Z,81.50
2019-03-03T15:08:12.657Z,81.45
2019-03-03T15:10:41.916Z,81.44
2019-03-03T15:13:11.492Z,81.44
2019-03-03T15:15:40.860Z,81.47
2019-03-03T15:18:10.089Z,81.46
2019-03-03T15:20:39.639Z,81.48
2019-03-03T15:23:09.069Z,81.60
2019-03-03T15:25:38.374Z,81.56
2019-03-03T15:28:07.782Z,81.65
2019-03-03T15:30:36.978Z,81.70
2019-03-03T15:33:06.531Z,81.69
2019-03-03T15:35:35.973Z,81.60
2019-03-03T15:38:05.463Z,81.56
2019-03-03T15:40:34.670Z,81.58
2019-03-03T15:43:04.050Z,81.73
2019-03-03T15:45:33.383Z,81.75
2019-03-03T15:48:02.638Z,81.82
2019-03-03T15:50:32.219Z,81.76
2019-03-03T15:53:01.410Z,81.79
2019-03-03T15:55:30.846Z,81.84
2019-03-03T15:58:00.425Z,81.90
2019-03-03T16:00:30.677Z,81.93
2019-03-03T16:02:59.864Z,82.02
2019-03-03T16:05:29.324Z,82.09
2019-03-03T16:07:58.597Z,82.09
2019-03-03T16:10:27.821Z,82.03
2019-03-03T16:12:57.637Z,82.03
2019-03-03T16:16:00.784Z,82.06
2019-03-03T16:18:46.797Z,82.15
2019-03-03T16:21:27.371Z,81.66
2019-03-03T16:24:02.583Z,82.14
2019-03-03T16:26:37.420Z,82.14
2019-03-03T16:29:07.076Z,82.21
2019-03-03T16:31:36.488Z,82.30
2019-03-03T16:34:06.240Z,82.34
2019-03-03T16:36:42.550Z,82.32
2019-03-03T16:39:12.661Z,82.46
2019-03-03T16:41:46.494Z,82.47
2019-03-03T16:44:15.769Z,82.46
2019-03-03T16:46:45.286Z,82.53
2019-03-03T16:49:14.567Z,82.55
2019-03-03T16:51:43.869Z,82.52
2019-03-03T16:54:13.286Z,82.53
2019-03-03T16:56:42.561Z,82.50
2019-03-03T16:59:11.878Z,82.51
2019-03-03T17:01:41.241Z,82.55
2019-03-03T17:04:10.427Z,82.64
2019-03-03T17:06:39.763Z,82.67
2019-03-03T17:09:09.318Z,82.64
2019-03-03T17:11:38.677Z,82.62
2019-03-03T17:14:07.964Z,82.60
2019-03-03T17:16:37.501Z,82.56
2019-03-03T17:19:06.700Z,82.51
2019-03-03T17:21:36.087Z,82.55
2019-03-03T17:24:05.508Z,82.57
2019-03-03T17:26:34.730Z,82.59
2019-03-03T17:29:04.067Z,82.64
2019-03-03T17:31:33.725Z,82.54
2019-03-03T17:34:02.949Z,82.43
2019-03-03T17:36:32.373Z,82.48
2019-03-03T17:39:01.910Z,82.54
2019-03-03T17:41:31.137Z,82.57
2019-03-03T17:44:00.488Z,82.54
2019-03-03T17:46:30.016Z,82.60
2019-03-03T17:48:59.309Z,82.57
2019-03-03T17:51:28.629Z,82.59
2019-03-03T17:53:58.220Z,82.61
2019-03-03T17:56:27.434Z,82.59
2019-03-03T17:58:56.661Z,82.60
2019-03-03T18:01:26.107Z,82.55
2019-03-03T18:03:55.277Z,82.61
2019-03-03T18:06:24.531Z,82.51
2019-03-03T18:08:53.902Z,82.61
2019-03-03T18:11:23.081Z,82.62
2019-03-03T18:13:52.355Z,82.65
2019-03-03T18:16:21.739Z,82.63
2019-03-03T18:18:50.977Z,82.61
2019-03-03T18:21:20.296Z,82.56
2019-03-03T18:23:49.831Z,82.61
2019-03-03T18:26:19.032Z,82.55
2019-03-03T18:28:48.306Z,82.59
2019-03-03T18:31:17.761Z,82.56
2019-03-03T18:33:47.046Z,82.55
2019-03-03T18:36:16.417Z,82.51
2019-03-03T18:38:45.939Z,82.55
2019-03-03T18:41:15.225Z,82.54
2019-03-03T18:43:44.442Z,82.54
2019-03-03T18:46:13.810Z,82.61
2019-03-03T18:48:43.139Z,82.56
2019-03-03T18:51:12.631Z,82.45
2019-03-03T18:53:41.913Z,82.41
2019-03-03T18:56:11.114Z,82.38
2019-03-03T18:58:40.323Z,82.37
2019-03-03T19:01:09.825Z,82.40
2019-03-03T19:03:39.011Z,82.39
2019-03-03T19:06:08.276Z,82.42
2019-03-03T19:08:37.721Z,82.34
2019-03-03T19:11:06.897Z,82.35
2019-03-03T19:13:36.115Z,82.33
2019-03-03T19:16:05.510Z,82.33
2019-03-03T19:18:34.707Z,82.35
2019-03-03T19:21:03.943Z,82.30
2019-03-03T19:23:33.313Z,82.29
2019-03-03T19:26:02.508Z,82.33
2019-03-03T19:28:32.096Z,82.20
2019-03-03T19:31:01.547Z,82.28
2019-03-03T19:33:35.336Z,82.33
2019-03-03T19:36:05.577Z,82.26
2019-03-03T19:38:34.766Z,82.24
2019-03-03T19:41:03.957Z,82.24
2019-03-03T19:43:33.317Z,82.26
2019-03-03T19:46:02.756Z,82.31
2019-03-03T19:48:31.926Z,82.24
2019-03-03T19:51:03.281Z,82.23
2019-03-03T19:53:32.446Z,82.32
2019-03-03T19:56:01.633Z,82.27
2019-03-03T19:58:31.376Z,82.30
2019-03-03T20:01:00.667Z,82.26
2019-03-03T20:03:29.961Z,82.20
2019-03-03T20:05:59.278Z,82.27
2019-03-03T20:08:28.488Z,82.28
2019-03-03T20:10:57.718Z,82.21
2019-03-03T20:13:27.050Z,82.24
2019-03-03T20:15:56.258Z,82.23
2019-03-03T20:18:25.517Z,82.17
2019-03-03T20:20:54.942Z,82.11
2019-03-03T20:23:24.202Z,82.10
2019-03-03T20:25:56.418Z,82.13
2019-03-03T20:28:25.677Z,82.12
2019-03-03T20:30:55.372Z,82.07
2019-03-03T20:33:24.644Z,82.09
2019-03-03T20:35:53.883Z,82.00
2019-03-03T20:38:23.111Z,82.02
2019-03-03T20:40:52.690Z,82.07
2019-03-03T20:43:21.926Z,82.02
2019-03-03T20:45:51.238Z,82.00
2019-03-03T20:48:20.690Z,81.95
2019-03-03T20:50:50.134Z,81.99
2019-03-03T20:53:19.534Z,82.05
2019-03-03T20:55:49.003Z,81.90
2019-03-03T20:58:19.089Z,82.06
2019-03-03T21:00:48.345Z,82.03
2019-03-03T21:03:17.831Z,82.03
2019-03-03T21:05:47.204Z,82.04
2019-03-03T21:08:16.425Z,81.95
2019-03-03T21:10:45.914Z,81.96
2019-03-03T21:13:15.191Z,81.99
2019-03-03T21:15:44.494Z,81.89
2019-03-03T21:18:13.924Z,81.85
2019-03-03T21:20:43.133Z,81.86
2019-03-03T21:23:12.377Z,81.83
2019-03-03T21:25:41.920Z,81.78
2019-03-03T21:28:11.696Z,81.72
2019-03-03T21:30:40.958Z,81.69
2019-03-03T21:33:10.221Z,81.72
2019-03-03T21:35:39.474Z,81.71
2019-03-03T21:38:08.742Z,81.70
2019-03-03T21:40:38.219Z,81.68
2019-03-03T21:43:07.572Z,81.63
2019-03-03T21:45:36.819Z,81.65
2019-03-03T21:48:06.326Z,81.62
2019-03-03T21:50:35.578Z,81.68
2019-03-03T21:53:04.755Z,81.72
2019-03-03T21:55:34.078Z,81.68
2019-03-03T21:58:03.425Z,81.66
2019-03-03T22:00:34.068Z,81.71
2019-03-03T22:03:03.465Z,81.73
2019-03-03T22:05:32.762Z,81.66
2019-03-03T22:08:02.125Z,81.63
2019-03-03T22:10:32.283Z,81.68
2019-03-03T22:13:12.235Z,81.66
2019-03-03T22:15:41.623Z,81.63
2019-03-03T22:18:10.908Z,81.68
2019-03-03T22:20:40.112Z,81.65
2019-03-03T22:23:09.651Z,81.61
2019-03-03T22:25:38.980Z,81.62
2019-03-03T22:28:08.318Z,81.59
2019-03-03T22:30:37.760Z,81.74
2019-03-03T22:33:07.625Z,81.65
2019-03-03T22:35:36.958Z,81.61
2019-03-03T22:38:06.225Z,81.70
2019-03-03T22:40:36.006Z,81.70
2019-03-03T22:43:05.369Z,81.67
2019-03-03T22:45:34.672Z,81.65
2019-03-03T22:48:03.872Z,81.67
2019-03-03T22:50:33.213Z,81.62
2019-03-03T22:53:02.593Z,81.62
2019-03-03T22:55:36.695Z,81.62
2019-03-03T22:58:06.273Z,81.60
2019-03-03T23:00:54.384Z,81.60
2019-03-03T23:03:27.765Z,81.58
2019-03-03T23:06:22.517Z,81.50
2019-03-03T23:09:30.107Z,81.51
2019-03-03T23:12:10.053Z,81.48
2019-03-03T23:15:06.528Z,81.46
2019-03-03T23:18:14.226Z,81.48
2019-03-03T23:21:00.598Z,81.51
2019-03-03T23:24:05.814Z,81.43
2019-03-03T23:26:35.165Z,81.40
2019-03-03T23:29:04.435Z,81.36
2019-03-03T23:31:33.658Z,81.40
2019-03-03T23:34:03.089Z,81.43
2019-03-03T23:36:32.318Z,81.50
2019-03-03T23:39:01.495Z,81.56
2019-03-03T23:41:30.900Z,81.61
2019-03-03T23:44:00.041Z,81.63
2019-03-03T23:46:29.229Z,81.61
2019-03-03T23:48:58.938Z,81.59
2019-03-03T23:51:28.121Z,81.56
2019-03-03T23:53:57.363Z,81.59
2019-03-03T23:56:26.833Z,81.63
2019-03-03T23:58:56.003Z,81.59
